sensor_id;sensor_type;location;lat;lon;timestamp;P1;durP1;ratioP1;P2;durP2;ratioP2
70455;SDS011;57916;51.996;5.180;2024-01-16T00:02:05;5.30;;;1.40;;
70455;SDS011;57916;51.996;5.180;2024-01-16T00:04:36;8.30;;;1.48;;
70455;SDS011;57916;51.996;5.180;2024-01-16T00:07:04;7.40;;;1.30;;
70455;SDS011;57916;51.996;5.180;2024-01-16T00:09:34;7.70;;;1.15;;
70455;SDS011;57916;51.996;5.180;2024-01-16T00:12:02;9.50;;;1.17;;
70455;SDS011;57916;51.996;5.180;2024-01-16T00:14:30;7.68;;;1.33;;
70455;SDS011;57916;51.996;5.180;2024-01-16T00:17:00;5.43;;;1.10;;
70455;SDS011;57916;51.996;5.180;2024-01-16T00:19:27;5.15;;;1.10;;
70455;SDS011;57916;51.996;5.180;2024-01-16T00:21:55;6.65;;;1.30;;
70455;SDS011;57916;51.996;5.180;2024-01-16T00:24:22;10.05;;;1.30;;
70455;SDS011;57916;51.996;5.180;2024-01-16T00:26:49;5.70;;;1.23;;
70455;SDS011;57916;51.996;5.180;2024-01-16T00:29:17;5.88;;;1.20;;
70455;SDS011;57916;51.996;5.180;2024-01-16T00:31:44;8.25;;;1.25;;
70455;SDS011;57916;51.996;5.180;2024-01-16T00:34:11;12.68;;;1.35;;
70455;SDS011;57916;51.996;5.180;2024-01-16T00:36:38;15.07;;;1.47;;
70455;SDS011;57916;51.996;5.180;2024-01-16T00:39:05;10.85;;;1.20;;
70455;SDS011;57916;51.996;5.180;2024-01-16T00:41:33;4.70;;;1.23;;
70455;SDS011;57916;51.996;5.180;2024-01-16T00:44:00;13.98;;;1.50;;
70455;SDS011;57916;51.996;5.180;2024-01-16T00:46:27;6.75;;;1.60;;
70455;SDS011;57916;51.996;5.180;2024-01-16T00:48:54;7.20;;;1.40;;
70455;SDS011;57916;51.996;5.180;2024-01-16T00:51:21;5.35;;;1.73;;
70455;SDS011;57916;51.996;5.180;2024-01-16T00:53:48;6.63;;;1.83;;
70455;SDS011;57916;51.996;5.180;2024-01-16T00:56:15;7.15;;;1.95;;
70455;SDS011;57916;51.996;5.180;2024-01-16T00:58:42;4.35;;;1.80;;
70455;SDS011;57916;51.996;5.180;2024-01-16T01:01:09;12.43;;;2.00;;
70455;SDS011;57916;51.996;5.180;2024-01-16T01:03:36;4.68;;;1.80;;
70455;SDS011;57916;51.996;5.180;2024-01-16T01:06:03;9.37;;;2.57;;
70455;SDS011;57916;51.996;5.180;2024-01-16T01:08:31;9.98;;;2.50;;
70455;SDS011;57916;51.996;5.180;2024-01-16T01:10:58;10.95;;;2.03;;
70455;SDS011;57916;51.996;5.180;2024-01-16T01:13:25;9.35;;;2.13;;
70455;SDS011;57916;51.996;5.180;2024-01-16T01:15:52;10.82;;;2.15;;
70455;SDS011;57916;51.996;5.180;2024-01-16T01:18:19;8.07;;;2.25;;
70455;SDS011;57916;51.996;5.180;2024-01-16T01:20:47;8.77;;;1.88;;
70455;SDS011;57916;51.996;5.180;2024-01-16T01:23:14;6.40;;;1.70;;
70455;SDS011;57916;51.996;5.180;2024-01-16T01:25:41;8.95;;;1.60;;
70455;SDS011;57916;51.996;5.180;2024-01-16T01:28:09;8.38;;;1.75;;
70455;SDS011;57916;51.996;5.180;2024-01-16T01:30:37;8.75;;;2.08;;
70455;SDS011;57916;51.996;5.180;2024-01-16T01:33:04;11.37;;;2.50;;
70455;SDS011;57916;51.996;5.180;2024-01-16T01:35:32;9.15;;;1.90;;
70455;SDS011;57916;51.996;5.180;2024-01-16T01:37:59;5.40;;;1.73;;
70455;SDS011;57916;51.996;5.180;2024-01-16T01:40:26;4.53;;;1.73;;
70455;SDS011;57916;51.996;5.180;2024-01-16T01:42:53;10.88;;;2.00;;
70455;SDS011;57916;51.996;5.180;2024-01-16T01:45:20;11.03;;;1.90;;
70455;SDS011;57916;51.996;5.180;2024-01-16T01:47:47;8.25;;;1.60;;
70455;SDS011;57916;51.996;5.180;2024-01-16T01:50:15;7.93;;;1.50;;
70455;SDS011;57916;51.996;5.180;2024-01-16T01:52:42;8.25;;;1.40;;
70455;SDS011;57916;51.996;5.180;2024-01-16T01:55:10;8.25;;;1.40;;
70455;SDS011;57916;51.996;5.180;2024-01-16T01:57:40;10.55;;;1.40;;
70455;SDS011;57916;51.996;5.180;2024-01-16T02:00:09;4.38;;;1.20;;
70455;SDS011;57916;51.996;5.180;2024-01-16T02:02:41;12.88;;;1.38;;
70455;SDS011;57916;51.996;5.180;2024-01-16T02:05:09;6.78;;;0.90;;
70455;SDS011;57916;51.996;5.180;2024-01-16T02:07:37;6.35;;;1.10;;
70455;SDS011;57916;51.996;5.180;2024-01-16T02:10:05;4.60;;;0.90;;
70455;SDS011;57916;51.996;5.180;2024-01-16T02:12:32;8.55;;;1.38;;
70455;SDS011;57916;51.996;5.180;2024-01-16T02:14:59;8.73;;;1.02;;
70455;SDS011;57916;51.996;5.180;2024-01-16T02:17:26;7.73;;;1.20;;
70455;SDS011;57916;51.996;5.180;2024-01-16T02:19:54;10.23;;;1.00;;
70455;SDS011;57916;51.996;5.180;2024-01-16T02:22:21;7.03;;;1.00;;
70455;SDS011;57916;51.996;5.180;2024-01-16T02:24:51;3.42;;;0.63;;
70455;SDS011;57916;51.996;5.180;2024-01-16T02:27:18;4.43;;;0.65;;
70455;SDS011;57916;51.996;5.180;2024-01-16T02:29:45;4.70;;;1.00;;
70455;SDS011;57916;51.996;5.180;2024-01-16T02:32:12;4.30;;;0.60;;
70455;SDS011;57916;51.996;5.180;2024-01-16T02:34:40;6.65;;;0.60;;
70455;SDS011;57916;51.996;5.180;2024-01-16T02:37:07;3.85;;;0.50;;
70455;SDS011;57916;51.996;5.180;2024-01-16T02:39:35;3.53;;;0.53;;
70455;SDS011;57916;51.996;5.180;2024-01-16T02:42:02;3.97;;;0.60;;
70455;SDS011;57916;51.996;5.180;2024-01-16T02:44:29;5.40;;;0.40;;
70455;SDS011;57916;51.996;5.180;2024-01-16T02:46:56;3.77;;;0.47;;
70455;SDS011;57916;51.996;5.180;2024-01-16T02:49:23;4.07;;;0.45;;
70455;SDS011;57916;51.996;5.180;2024-01-16T02:51:52;3.08;;;0.50;;
70455;SDS011;57916;51.996;5.180;2024-01-16T02:54:19;2.97;;;0.60;;
70455;SDS011;57916;51.996;5.180;2024-01-16T02:56:47;2.85;;;0.55;;
70455;SDS011;57916;51.996;5.180;2024-01-16T02:59:14;1.55;;;0.52;;
70455;SDS011;57916;51.996;5.180;2024-01-16T03:01:41;3.20;;;0.60;;
70455;SDS011;57916;51.996;5.180;2024-01-16T03:04:08;3.35;;;0.40;;
70455;SDS011;57916;51.996;5.180;2024-01-16T03:06:35;4.35;;;0.45;;
70455;SDS011;57916;51.996;5.180;2024-01-16T03:09:02;3.35;;;0.55;;
70455;SDS011;57916;51.996;5.180;2024-01-16T03:11:29;6.28;;;0.70;;
70455;SDS011;57916;51.996;5.180;2024-01-16T03:13:59;4.47;;;0.60;;
70455;SDS011;57916;51.996;5.180;2024-01-16T03:16:26;3.50;;;0.50;;
70455;SDS011;57916;51.996;5.180;2024-01-16T03:18:54;6.93;;;0.98;;
70455;SDS011;57916;51.996;5.180;2024-01-16T03:21:21;5.33;;;0.93;;
70455;SDS011;57916;51.996;5.180;2024-01-16T03:23:48;4.25;;;0.90;;
70455;SDS011;57916;51.996;5.180;2024-01-16T03:26:15;9.32;;;1.20;;
70455;SDS011;57916;51.996;5.180;2024-01-16T03:28:43;5.60;;;0.88;;
70455;SDS011;57916;51.996;5.180;2024-01-16T03:31:11;7.80;;;1.00;;
70455;SDS011;57916;51.996;5.180;2024-01-16T03:33:40;5.90;;;1.08;;
70455;SDS011;57916;51.996;5.180;2024-01-16T03:36:09;8.60;;;1.15;;
70455;SDS011;57916;51.996;5.180;2024-01-16T03:38:37;6.88;;;1.00;;
70455;SDS011;57916;51.996;5.180;2024-01-16T03:41:05;4.90;;;0.98;;
70455;SDS011;57916;51.996;5.180;2024-01-16T03:43:34;4.40;;;1.00;;
70455;SDS011;57916;51.996;5.180;2024-01-16T03:46:01;4.65;;;1.20;;
70455;SDS011;57916;51.996;5.180;2024-01-16T03:48:28;6.53;;;0.98;;
70455;SDS011;57916;51.996;5.180;2024-01-16T03:50:56;6.60;;;0.82;;
70455;SDS011;57916;51.996;5.180;2024-01-16T03:53:23;4.72;;;0.80;;
70455;SDS011;57916;51.996;5.180;2024-01-16T03:55:50;5.40;;;0.95;;
70455;SDS011;57916;51.996;5.180;2024-01-16T03:58:17;6.50;;;0.90;;
70455;SDS011;57916;51.996;5.180;2024-01-16T04:00:44;5.20;;;1.27;;
70455;SDS011;57916;51.996;5.180;2024-01-16T04:03:12;6.40;;;1.00;;
70455;SDS011;57916;51.996;5.180;2024-01-16T04:05:39;6.10;;;0.75;;
70455;SDS011;57916;51.996;5.180;2024-01-16T04:08:06;4.22;;;0.73;;
70455;SDS011;57916;51.996;5.180;2024-01-16T04:10:34;8.48;;;1.00;;
70455;SDS011;57916;51.996;5.180;2024-01-16T04:13:01;4.72;;;0.73;;
70455;SDS011;57916;51.996;5.180;2024-01-16T04:15:29;5.90;;;0.80;;
70455;SDS011;57916;51.996;5.180;2024-01-16T04:17:56;6.78;;;0.98;;
70455;SDS011;57916;51.996;5.180;2024-01-16T04:20:23;3.78;;;1.10;;
70455;SDS011;57916;51.996;5.180;2024-01-16T04:22:50;6.47;;;0.80;;
70455;SDS011;57916;51.996;5.180;2024-01-16T04:25:17;2.03;;;0.93;;
70455;SDS011;57916;51.996;5.180;2024-01-16T04:27:44;2.13;;;0.90;;
70455;SDS011;57916;51.996;5.180;2024-01-16T04:30:12;2.92;;;1.00;;
70455;SDS011;57916;51.996;5.180;2024-01-16T04:32:39;3.05;;;1.00;;
70455;SDS011;57916;51.996;5.180;2024-01-16T04:35:07;5.17;;;1.40;;
70455;SDS011;57916;51.996;5.180;2024-01-16T04:37:35;6.03;;;1.30;;
70455;SDS011;57916;51.996;5.180;2024-01-16T04:40:02;2.50;;;1.05;;
70455;SDS011;57916;51.996;5.180;2024-01-16T04:42:31;6.32;;;1.42;;
70455;SDS011;57916;51.996;5.180;2024-01-16T04:44:58;4.35;;;1.60;;
70455;SDS011;57916;51.996;5.180;2024-01-16T04:47:25;5.22;;;1.50;;
70455;SDS011;57916;51.996;5.180;2024-01-16T04:49:53;4.70;;;1.50;;
70455;SDS011;57916;51.996;5.180;2024-01-16T04:52:19;9.18;;;1.58;;
70455;SDS011;57916;51.996;5.180;2024-01-16T04:54:46;5.47;;;1.48;;
70455;SDS011;57916;51.996;5.180;2024-01-16T04:57:14;3.80;;;1.40;;
70455;SDS011;57916;51.996;5.180;2024-01-16T04:59:41;4.72;;;1.63;;
70455;SDS011;57916;51.996;5.180;2024-01-16T05:02:08;4.65;;;1.52;;
70455;SDS011;57916;51.996;5.180;2024-01-16T05:04:36;8.40;;;2.08;;
70455;SDS011;57916;51.996;5.180;2024-01-16T05:07:04;8.20;;;1.77;;
70455;SDS011;57916;51.996;5.180;2024-01-16T05:09:31;3.53;;;1.77;;
70455;SDS011;57916;51.996;5.180;2024-01-16T05:11:58;5.83;;;1.97;;
70455;SDS011;57916;51.996;5.180;2024-01-16T05:14:26;9.68;;;1.70;;
70455;SDS011;57916;51.996;5.180;2024-01-16T05:16:53;7.32;;;1.83;;
70455;SDS011;57916;51.996;5.180;2024-01-16T05:19:20;4.57;;;1.75;;
70455;SDS011;57916;51.996;5.180;2024-01-16T05:21:47;4.15;;;1.80;;
70455;SDS011;57916;51.996;5.180;2024-01-16T05:24:14;5.95;;;2.00;;
70455;SDS011;57916;51.996;5.180;2024-01-16T05:26:41;9.43;;;2.17;;
70455;SDS011;57916;51.996;5.180;2024-01-16T05:29:08;6.63;;;2.42;;
70455;SDS011;57916;51.996;5.180;2024-01-16T05:31:39;4.93;;;2.30;;
70455;SDS011;57916;51.996;5.180;2024-01-16T05:34:10;6.72;;;2.63;;
70455;SDS011;57916;51.996;5.180;2024-01-16T05:36:37;8.23;;;2.97;;
70455;SDS011;57916;51.996;5.180;2024-01-16T05:39:04;5.95;;;3.10;;
70455;SDS011;57916;51.996;5.180;2024-01-16T05:41:34;5.88;;;3.58;;
70455;SDS011;57916;51.996;5.180;2024-01-16T05:44:02;8.00;;;3.43;;
70455;SDS011;57916;51.996;5.180;2024-01-16T05:46:33;5.68;;;3.50;;
70455;SDS011;57916;51.996;5.180;2024-01-16T05:49:00;8.25;;;3.42;;
70455;SDS011;57916;51.996;5.180;2024-01-16T05:51:28;6.43;;;3.42;;
70455;SDS011;57916;51.996;5.180;2024-01-16T05:53:56;8.88;;;3.55;;
70455;SDS011;57916;51.996;5.180;2024-01-16T05:56:23;9.73;;;3.25;;
70455;SDS011;57916;51.996;5.180;2024-01-16T05:58:50;5.18;;;3.38;;
70455;SDS011;57916;51.996;5.180;2024-01-16T06:01:18;5.88;;;3.25;;
70455;SDS011;57916;51.996;5.180;2024-01-16T06:03:45;8.57;;;3.15;;
70455;SDS011;57916;51.996;5.180;2024-01-16T06:06:15;8.88;;;2.97;;
70455;SDS011;57916;51.996;5.180;2024-01-16T06:08:43;13.82;;;2.78;;
70455;SDS011;57916;51.996;5.180;2024-01-16T06:11:10;9.15;;;2.75;;
70455;SDS011;57916;51.996;5.180;2024-01-16T06:13:40;12.02;;;2.85;;
70455;SDS011;57916;51.996;5.180;2024-01-16T06:16:07;9.80;;;2.55;;
70455;SDS011;57916;51.996;5.180;2024-01-16T06:18:34;9.00;;;2.60;;
70455;SDS011;57916;51.996;5.180;2024-01-16T06:21:02;9.70;;;2.60;;
70455;SDS011;57916;51.996;5.180;2024-01-16T06:23:30;8.98;;;2.20;;
70455;SDS011;57916;51.996;5.180;2024-01-16T06:25:57;6.55;;;2.20;;
70455;SDS011;57916;51.996;5.180;2024-01-16T06:28:25;11.95;;;2.45;;
70455;SDS011;57916;51.996;5.180;2024-01-16T06:30:52;7.50;;;2.15;;
70455;SDS011;57916;51.996;5.180;2024-01-16T06:33:19;7.43;;;2.60;;
70455;SDS011;57916;51.996;5.180;2024-01-16T06:35:46;13.70;;;2.55;;
70455;SDS011;57916;51.996;5.180;2024-01-16T06:38:18;8.15;;;2.30;;
70455;SDS011;57916;51.996;5.180;2024-01-16T06:40:45;11.43;;;2.83;;
70455;SDS011;57916;51.996;5.180;2024-01-16T06:43:12;8.50;;;2.40;;
70455;SDS011;57916;51.996;5.180;2024-01-16T06:45:42;12.85;;;2.53;;
70455;SDS011;57916;51.996;5.180;2024-01-16T06:48:09;14.23;;;3.00;;
70455;SDS011;57916;51.996;5.180;2024-01-16T06:50:37;10.45;;;2.97;;
70455;SDS011;57916;51.996;5.180;2024-01-16T06:53:04;11.82;;;4.15;;
70455;SDS011;57916;51.996;5.180;2024-01-16T06:55:31;11.95;;;4.10;;
70455;SDS011;57916;51.996;5.180;2024-01-16T06:57:58;10.70;;;3.53;;
70455;SDS011;57916;51.996;5.180;2024-01-16T07:00:25;9.52;;;3.72;;
70455;SDS011;57916;51.996;5.180;2024-01-16T07:02:53;19.35;;;4.38;;
70455;SDS011;57916;51.996;5.180;2024-01-16T07:05:23;14.45;;;4.38;;
70455;SDS011;57916;51.996;5.180;2024-01-16T07:07:50;11.65;;;4.75;;
70455;SDS011;57916;51.996;5.180;2024-01-16T07:10:17;13.40;;;4.85;;
70455;SDS011;57916;51.996;5.180;2024-01-16T07:12:48;13.35;;;5.03;;
70455;SDS011;57916;51.996;5.180;2024-01-16T07:15:15;19.20;;;5.10;;
70455;SDS011;57916;51.996;5.180;2024-01-16T07:17:42;14.55;;;4.50;;
70455;SDS011;57916;51.996;5.180;2024-01-16T07:20:10;11.82;;;5.05;;
70455;SDS011;57916;51.996;5.180;2024-01-16T07:22:37;17.35;;;4.72;;
70455;SDS011;57916;51.996;5.180;2024-01-16T07:25:06;11.13;;;4.50;;
70455;SDS011;57916;51.996;5.180;2024-01-16T07:27:33;16.73;;;4.50;;
70455;SDS011;57916;51.996;5.180;2024-01-16T07:30:01;11.53;;;3.90;;
70455;SDS011;57916;51.996;5.180;2024-01-16T07:32:30;8.00;;;3.72;;
70455;SDS011;57916;51.996;5.180;2024-01-16T07:34:58;10.32;;;3.58;;
70455;SDS011;57916;51.996;5.180;2024-01-16T07:37:25;12.90;;;3.67;;
70455;SDS011;57916;51.996;5.180;2024-01-16T07:39:52;12.07;;;3.90;;
70455;SDS011;57916;51.996;5.180;2024-01-16T07:42:19;10.18;;;3.45;;
70455;SDS011;57916;51.996;5.180;2024-01-16T07:44:46;15.27;;;3.33;;
70455;SDS011;57916;51.996;5.180;2024-01-16T07:47:14;11.90;;;3.60;;
70455;SDS011;57916;51.996;5.180;2024-01-16T07:49:41;10.10;;;3.20;;
70455;SDS011;57916;51.996;5.180;2024-01-16T07:52:09;10.23;;;3.50;;
70455;SDS011;57916;51.996;5.180;2024-01-16T07:54:38;11.85;;;2.90;;
70455;SDS011;57916;51.996;5.180;2024-01-16T07:57:05;16.88;;;2.78;;
70455;SDS011;57916;51.996;5.180;2024-01-16T07:59:32;8.75;;;2.90;;
70455;SDS011;57916;51.996;5.180;2024-01-16T08:02:00;9.52;;;2.88;;
70455;SDS011;57916;51.996;5.180;2024-01-16T08:04:27;11.60;;;3.13;;
70455;SDS011;57916;51.996;5.180;2024-01-16T08:06:53;9.43;;;2.80;;
70455;SDS011;57916;51.996;5.180;2024-01-16T08:09:21;9.75;;;2.85;;
70455;SDS011;57916;51.996;5.180;2024-01-16T08:11:48;11.43;;;3.40;;
70455;SDS011;57916;51.996;5.180;2024-01-16T08:14:15;7.93;;;2.75;;
70455;SDS011;57916;51.996;5.180;2024-01-16T08:16:42;10.38;;;3.00;;
70455;SDS011;57916;51.996;5.180;2024-01-16T08:19:09;10.00;;;3.03;;
70455;SDS011;57916;51.996;5.180;2024-01-16T08:21:36;11.88;;;3.00;;
70455;SDS011;57916;51.996;5.180;2024-01-16T08:24:03;10.88;;;3.15;;
70455;SDS011;57916;51.996;5.180;2024-01-16T08:26:30;7.88;;;2.85;;
70455;SDS011;57916;51.996;5.180;2024-01-16T08:28:57;11.27;;;2.90;;
70455;SDS011;57916;51.996;5.180;2024-01-16T08:31:24;9.70;;;2.90;;
70455;SDS011;57916;51.996;5.180;2024-01-16T08:33:51;10.02;;;2.92;;
70455;SDS011;57916;51.996;5.180;2024-01-16T08:36:22;8.35;;;2.83;;
70455;SDS011;57916;51.996;5.180;2024-01-16T08:38:49;14.05;;;3.10;;
70455;SDS011;57916;51.996;5.180;2024-01-16T08:41:16;10.18;;;3.38;;
70455;SDS011;57916;51.996;5.180;2024-01-16T08:43:43;12.32;;;2.97;;
70455;SDS011;57916;51.996;5.180;2024-01-16T08:46:10;11.70;;;3.17;;
70455;SDS011;57916;51.996;5.180;2024-01-16T08:48:37;9.90;;;3.20;;
70455;SDS011;57916;51.996;5.180;2024-01-16T08:51:07;13.93;;;3.33;;
70455;SDS011;57916;51.996;5.180;2024-01-16T08:53:38;7.00;;;3.17;;
70455;SDS011;57916;51.996;5.180;2024-01-16T08:56:05;10.20;;;3.60;;
70455;SDS011;57916;51.996;5.180;2024-01-16T08:58:35;13.25;;;3.60;;
70455;SDS011;57916;51.996;5.180;2024-01-16T09:01:04;9.50;;;3.50;;
70455;SDS011;57916;51.996;5.180;2024-01-16T09:03:35;12.35;;;3.50;;
70455;SDS011;57916;51.996;5.180;2024-01-16T09:06:02;11.60;;;3.70;;
70455;SDS011;57916;51.996;5.180;2024-01-16T09:08:30;13.25;;;3.58;;
70455;SDS011;57916;51.996;5.180;2024-01-16T09:10:58;14.90;;;3.80;;
70455;SDS011;57916;51.996;5.180;2024-01-16T09:13:25;7.70;;;3.60;;
70455;SDS011;57916;51.996;5.180;2024-01-16T09:15:52;11.02;;;3.80;;
70455;SDS011;57916;51.996;5.180;2024-01-16T09:18:19;12.80;;;3.50;;
70455;SDS011;57916;51.996;5.180;2024-01-16T09:20:46;14.85;;;4.07;;
70455;SDS011;57916;51.996;5.180;2024-01-16T09:23:13;9.02;;;3.85;;
70455;SDS011;57916;51.996;5.180;2024-01-16T09:25:40;13.77;;;4.00;;
70455;SDS011;57916;51.996;5.180;2024-01-16T09:28:10;10.82;;;3.50;;
70455;SDS011;57916;51.996;5.180;2024-01-16T09:30:38;10.23;;;3.70;;
70455;SDS011;57916;51.996;5.180;2024-01-16T09:33:05;5.85;;;3.20;;
70455;SDS011;57916;51.996;5.180;2024-01-16T09:35:33;10.70;;;3.35;;
70455;SDS011;57916;51.996;5.180;2024-01-16T09:38:01;9.90;;;3.10;;
70455;SDS011;57916;51.996;5.180;2024-01-16T09:40:28;12.23;;;3.47;;
70455;SDS011;57916;51.996;5.180;2024-01-16T09:42:55;8.05;;;3.45;;
70455;SDS011;57916;51.996;5.180;2024-01-16T09:45:22;12.57;;;3.30;;
70455;SDS011;57916;51.996;5.180;2024-01-16T09:47:51;5.78;;;3.13;;
70455;SDS011;57916;51.996;5.180;2024-01-16T09:50:19;7.90;;;2.95;;
70455;SDS011;57916;51.996;5.180;2024-01-16T09:52:47;11.90;;;3.60;;
70455;SDS011;57916;51.996;5.180;2024-01-16T09:55:15;11.68;;;3.38;;
70455;SDS011;57916;51.996;5.180;2024-01-16T09:57:43;4.88;;;3.10;;
70455;SDS011;57916;51.996;5.180;2024-01-16T10:00:13;10.05;;;3.00;;
70455;SDS011;57916;51.996;5.180;2024-01-16T10:02:40;6.97;;;2.80;;
70455;SDS011;57916;51.996;5.180;2024-01-16T10:05:09;10.82;;;2.63;;
70455;SDS011;57916;51.996;5.180;2024-01-16T10:07:38;5.18;;;2.60;;
70455;SDS011;57916;51.996;5.180;2024-01-16T10:10:06;7.72;;;2.60;;
70455;SDS011;57916;51.996;5.180;2024-01-16T10:12:38;9.13;;;2.58;;
70455;SDS011;57916;51.996;5.180;2024-01-16T10:15:06;6.85;;;2.60;;
70455;SDS011;57916;51.996;5.180;2024-01-16T10:17:37;7.65;;;2.45;;
70455;SDS011;57916;51.996;5.180;2024-01-16T10:20:06;6.97;;;2.40;;
70455;SDS011;57916;51.996;5.180;2024-01-16T10:22:40;6.10;;;2.33;;
70455;SDS011;57916;51.996;5.180;2024-01-16T10:27:39;5.63;;;2.38;;
70455;SDS011;57916;51.996;5.180;2024-01-16T10:30:06;5.60;;;2.17;;
70455;SDS011;57916;51.996;5.180;2024-01-16T10:32:35;6.82;;;2.65;;
70455;SDS011;57916;51.996;5.180;2024-01-16T10:40:19;5.32;;;2.30;;
70455;SDS011;57916;51.996;5.180;2024-01-16T10:42:59;5.30;;;2.10;;
70455;SDS011;57916;51.996;5.180;2024-01-16T10:45:27;5.20;;;2.20;;
70455;SDS011;57916;51.996;5.180;2024-01-16T10:50:35;6.70;;;2.00;;
70455;SDS011;57916;51.996;5.180;2024-01-16T10:53:03;5.60;;;2.45;;
70455;SDS011;57916;51.996;5.180;2024-01-16T10:55:31;6.90;;;2.40;;
70455;SDS011;57916;51.996;5.180;2024-01-16T10:58:21;5.95;;;2.17;;
70455;SDS011;57916;51.996;5.180;2024-01-16T11:00:50;5.70;;;1.83;;
70455;SDS011;57916;51.996;5.180;2024-01-16T11:03:31;6.32;;;2.30;;
70455;SDS011;57916;51.996;5.180;2024-01-16T11:06:05;5.68;;;2.25;;
70455;SDS011;57916;51.996;5.180;2024-01-16T11:08:37;9.05;;;2.20;;
70455;SDS011;57916;51.996;5.180;2024-01-16T11:11:06;5.32;;;2.03;;
70455;SDS011;57916;51.996;5.180;2024-01-16T11:13:35;6.15;;;2.47;;
70455;SDS011;57916;51.996;5.180;2024-01-16T11:16:03;5.18;;;2.35;;
70455;SDS011;57916;51.996;5.180;2024-01-16T11:18:31;5.30;;;2.30;;
70455;SDS011;57916;51.996;5.180;2024-01-16T11:20:59;7.90;;;2.15;;
70455;SDS011;57916;51.996;5.180;2024-01-16T11:23:34;8.07;;;2.60;;
70455;SDS011;57916;51.996;5.180;2024-01-16T11:29:00;6.07;;;2.25;;
70455;SDS011;57916;51.996;5.180;2024-01-16T11:31:47;5.38;;;2.55;;
70455;SDS011;57916;51.996;5.180;2024-01-16T11:34:14;8.38;;;2.58;;
70455;SDS011;57916;51.996;5.180;2024-01-16T11:39:21;5.80;;;2.58;;
70455;SDS011;57916;51.996;5.180;2024-01-16T11:47:21;7.00;;;3.00;;
70455;SDS011;57916;51.996;5.180;2024-01-16T11:49:50;10.17;;;2.70;;
70455;SDS011;57916;51.996;5.180;2024-01-16T11:52:43;6.50;;;2.92;;
70455;SDS011;57916;51.996;5.180;2024-01-16T11:55:27;7.72;;;2.85;;
70455;SDS011;57916;51.996;5.180;2024-01-16T11:58:33;5.63;;;3.03;;
70455;SDS011;57916;51.996;5.180;2024-01-16T12:01:11;6.10;;;2.80;;
70455;SDS011;57916;51.996;5.180;2024-01-16T12:03:39;10.02;;;3.47;;
70455;SDS011;57916;51.996;5.180;2024-01-16T12:06:06;5.80;;;3.58;;
70455;SDS011;57916;51.996;5.180;2024-01-16T12:08:35;9.15;;;3.58;;
70455;SDS011;57916;51.996;5.180;2024-01-16T12:11:05;8.43;;;3.22;;
70455;SDS011;57916;51.996;5.180;2024-01-16T12:13:32;8.35;;;3.35;;
70455;SDS011;57916;51.996;5.180;2024-01-16T12:16:00;8.73;;;3.45;;
70455;SDS011;57916;51.996;5.180;2024-01-16T12:18:27;10.10;;;3.20;;
70455;SDS011;57916;51.996;5.180;2024-01-16T12:21:08;9.52;;;3.55;;
70455;SDS011;57916;51.996;5.180;2024-01-16T12:23:37;8.70;;;3.42;;
70455;SDS011;57916;51.996;5.180;2024-01-16T12:26:21;8.05;;;3.38;;
70455;SDS011;57916;51.996;5.180;2024-01-16T12:28:51;7.45;;;3.33;;
70455;SDS011;57916;51.996;5.180;2024-01-16T12:31:23;5.47;;;3.30;;
70455;SDS011;57916;51.996;5.180;2024-01-16T12:33:51;7.35;;;3.35;;
70455;SDS011;57916;51.996;5.180;2024-01-16T12:36:29;5.55;;;3.30;;
70455;SDS011;57916;51.996;5.180;2024-01-16T12:38:56;7.85;;;3.65;;
70455;SDS011;57916;51.996;5.180;2024-01-16T12:41:23;4.78;;;3.25;;
70455;SDS011;57916;51.996;5.180;2024-01-16T12:44:07;7.28;;;3.15;;
70455;SDS011;57916;51.996;5.180;2024-01-16T12:46:42;11.85;;;3.65;;
70455;SDS011;57916;51.996;5.180;2024-01-16T12:49:11;5.38;;;3.38;;
70455;SDS011;57916;51.996;5.180;2024-01-16T12:51:39;6.55;;;3.53;;
70455;SDS011;57916;51.996;5.180;2024-01-16T12:54:12;8.63;;;3.30;;
70455;SDS011;57916;51.996;5.180;2024-01-16T12:56:41;9.30;;;3.55;;
70455;SDS011;57916;51.996;5.180;2024-01-16T12:59:11;8.70;;;3.50;;
70455;SDS011;57916;51.996;5.180;2024-01-16T13:01:40;9.10;;;3.30;;
70455;SDS011;57916;51.996;5.180;2024-01-16T13:04:12;8.80;;;3.25;;
70455;SDS011;57916;51.996;5.180;2024-01-16T13:06:45;9.27;;;3.50;;
70455;SDS011;57916;51.996;5.180;2024-01-16T13:09:14;4.97;;;3.08;;
70455;SDS011;57916;51.996;5.180;2024-01-16T13:14:23;6.75;;;3.47;;
70455;SDS011;57916;51.996;5.180;2024-01-16T13:16:54;10.20;;;3.60;;
70455;SDS011;57916;51.996;5.180;2024-01-16T13:19:24;6.40;;;3.05;;
70455;SDS011;57916;51.996;5.180;2024-01-16T13:21:52;9.38;;;3.53;;
70455;SDS011;57916;51.996;5.180;2024-01-16T13:24:20;9.40;;;3.10;;
70455;SDS011;57916;51.996;5.180;2024-01-16T13:26:50;7.32;;;3.55;;
70455;SDS011;57916;51.996;5.180;2024-01-16T13:29:18;8.43;;;2.97;;
70455;SDS011;57916;51.996;5.180;2024-01-16T13:31:46;8.07;;;3.40;;
70455;SDS011;57916;51.996;5.180;2024-01-16T13:34:13;5.15;;;2.97;;
70455;SDS011;57916;51.996;5.180;2024-01-16T13:36:44;11.65;;;3.63;;
70455;SDS011;57916;51.996;5.180;2024-01-16T13:39:30;9.88;;;3.55;;
70455;SDS011;57916;51.996;5.180;2024-01-16T13:42:04;8.63;;;3.28;;
70455;SDS011;57916;51.996;5.180;2024-01-16T13:44:33;4.80;;;3.40;;
70455;SDS011;57916;51.996;5.180;2024-01-16T13:47:00;9.95;;;4.13;;
70455;SDS011;57916;51.996;5.180;2024-01-16T13:49:35;6.00;;;3.20;;
70455;SDS011;57916;51.996;5.180;2024-01-16T13:52:03;4.23;;;3.03;;
70455;SDS011;57916;51.996;5.180;2024-01-16T13:54:30;6.80;;;3.10;;
70455;SDS011;57916;51.996;5.180;2024-01-16T13:56:57;6.60;;;3.17;;
70455;SDS011;57916;51.996;5.180;2024-01-16T13:59:34;9.25;;;3.35;;
70455;SDS011;57916;51.996;5.180;2024-01-16T14:02:02;6.82;;;2.80;;
70455;SDS011;57916;51.996;5.180;2024-01-16T14:04:31;10.25;;;3.42;;
70455;SDS011;57916;51.996;5.180;2024-01-16T14:06:58;8.20;;;3.42;;
70455;SDS011;57916;51.996;5.180;2024-01-16T14:09:39;7.88;;;3.20;;
70455;SDS011;57916;51.996;5.180;2024-01-16T14:12:11;5.95;;;3.05;;
70455;SDS011;57916;51.996;5.180;2024-01-16T14:14:40;6.70;;;3.10;;
70455;SDS011;57916;51.996;5.180;2024-01-16T14:17:08;6.28;;;3.03;;
70455;SDS011;57916;51.996;5.180;2024-01-16T14:19:36;7.50;;;3.20;;
70455;SDS011;57916;51.996;5.180;2024-01-16T14:22:04;5.37;;;2.97;;
70455;SDS011;57916;51.996;5.180;2024-01-16T14:24:31;9.50;;;3.35;;
70455;SDS011;57916;51.996;5.180;2024-01-16T14:26:58;5.47;;;2.77;;
70455;SDS011;57916;51.996;5.180;2024-01-16T14:29:26;8.93;;;2.80;;
70455;SDS011;57916;51.996;5.180;2024-01-16T14:31:56;8.90;;;2.92;;
70455;SDS011;57916;51.996;5.180;2024-01-16T14:34:24;6.60;;;3.00;;
70455;SDS011;57916;51.996;5.180;2024-01-16T14:36:52;6.22;;;2.88;;
70455;SDS011;57916;51.996;5.180;2024-01-16T14:39:20;4.80;;;2.80;;
70455;SDS011;57916;51.996;5.180;2024-01-16T14:41:52;7.20;;;3.10;;
70455;SDS011;57916;51.996;5.180;2024-01-16T14:44:20;8.98;;;3.20;;
70455;SDS011;57916;51.996;5.180;2024-01-16T14:46:47;6.40;;;2.83;;
70455;SDS011;57916;51.996;5.180;2024-01-16T14:49:18;6.77;;;2.80;;
70455;SDS011;57916;51.996;5.180;2024-01-16T14:51:45;8.35;;;3.45;;
70455;SDS011;57916;51.996;5.180;2024-01-16T14:54:13;5.30;;;3.03;;
70455;SDS011;57916;51.996;5.180;2024-01-16T14:56:40;8.13;;;3.00;;
70455;SDS011;57916;51.996;5.180;2024-01-16T14:59:07;6.20;;;2.85;;
70455;SDS011;57916;51.996;5.180;2024-01-16T15:01:40;5.80;;;3.20;;
70455;SDS011;57916;51.996;5.180;2024-01-16T15:04:07;4.10;;;2.90;;
70455;SDS011;57916;51.996;5.180;2024-01-16T15:06:34;7.97;;;3.20;;
70455;SDS011;57916;51.996;5.180;2024-01-16T15:09:01;5.65;;;3.15;;
70455;SDS011;57916;51.996;5.180;2024-01-16T15:11:28;8.60;;;3.63;;
70455;SDS011;57916;51.996;5.180;2024-01-16T15:13:56;7.03;;;3.17;;
70455;SDS011;57916;51.996;5.180;2024-01-16T15:16:30;7.50;;;3.25;;
70455;SDS011;57916;51.996;5.180;2024-01-16T15:18:57;7.82;;;3.05;;